Bartelso, Illinois
Current Conditions -  °F | °C
As of 5:15 PM on Wednesday 22 Oct 2014 (Local Time) from KENL Reporting Station
Clear Clear  
Wind Chill: 61°   Ceiling: Unl
Heat Index: 61°   Visibility: 10mi
Dew Point: 38°   Wind: 6mph
Humidity: 42%   Direction: 60°ENE
Pressure: 30.23"   Gusts: NA
Location:  38.54°N, 89.47°W
Report Text: KENL 222215Z AUTO 06005KT 10SM CLR 16/03 A3023 RMK AO2 T01610032
Loading
Personal Weather Stations






























Interactive Weather Map New forecast layout! Learn more

10-Day Weather Forecast

Advertisements
Track Severe Weather on mobile